Time,TemperatureF,DewpointF,PressureIn,WindDirection,WindDirectionDegrees,WindSpeedMPH,WindSpeedGustMPH,Humidity,HourlyPrecipIn,Conditions,Clouds,dailyrainin,SoftwareType,DateUTC
2013-03-30 00:01:00,47.6,44.0,30.23,NNE,17,1.0,2.0,87,0.00,,,0.00,weatherlink.com 1.10,2013-03-30 07:01:00,
2013-03-30 00:16:00,47.7,44.0,30.24,North,360,0.0,3.0,87,0.00,,,0.00,weatherlink.com 1.10,2013-03-30 07:16:00,
2013-03-30 00:31:00,47.5,44.0,30.23,North,360,0.0,0.0,88,0.00,,,0.00,weatherlink.com 1.10,2013-03-30 07:31:00,
2013-03-30 00:46:00,47.0,44.0,30.24,North,360,0.0,0.0,88,0.00,,,0.00,weatherlink.com 1.10,2013-03-30 07:46:00,
2013-03-30 01:01:00,46.5,44.0,30.24,North,360,0.0,0.0,89,0.00,,,0.00,weatherlink.com 1.10,2013-03-30 08:01:00,
2013-03-30 01:17:00,46.1,44.0,30.24,North,360,0.0,1.0,91,0.00,,,0.00,weatherlink.com 1.10,2013-03-30 08:17:00,
2013-03-30 01:32:00,45.8,43.0,30.24,North,360,0.0,2.0,91,0.00,,,0.00,weatherlink.com 1.10,2013-03-30 08:32:00,
2013-03-30 01:47:00,45.8,44.0,30.24,NW,319,0.0,3.0,92,0.00,,,0.00,weatherlink.com 1.10,2013-03-30 08:47:00,
2013-03-30 02:02:00,45.7,44.0,30.24,NW,319,0.0,4.0,92,0.00,,,0.00,weatherlink.com 1.10,2013-03-30 09:02:00,
2013-03-30 02:17:00,45.3,43.0,30.24,WNW,295,2.0,3.0,93,0.00,,,0.00,weatherlink.com 1.10,2013-03-30 09:17:00,
2013-03-30 02:33:00,45.2,43.0,30.25,NNW,331,0.0,3.0,93,0.00,,,0.00,weatherlink.com 1.10,2013-03-30 09:33:00,
2013-03-30 02:47:00,44.8,43.0,30.25,NNW,327,0.0,0.0,93,0.00,,,0.00,weatherlink.com 1.10,2013-03-30 09:47:00,
2013-03-30 03:17:00,44.3,42.0,30.24,NE,55,0.0,3.0,93,0.00,,,0.00,weatherlink.com 1.10,2013-03-30 10:17:00,
2013-03-30 03:32:00,44.3,42.0,30.24,NE,55,0.0,2.0,93,0.00,,,0.00,weatherlink.com 1.10,2013-03-30 10:32:00,
2013-03-30 03:47:00,44.3,43.0,30.24,WNW,296,0.0,2.0,95,0.00,,,0.00,weatherlink.com 1.10,2013-03-30 10:47:00,
2013-03-30 04:02:00,43.7,42.0,30.24,WNW,288,2.0,2.0,94,0.00,,,0.00,weatherlink.com 1.10,2013-03-30 11:02:00,
2013-03-30 04:17:00,43.4,42.0,30.24,WNW,288,0.0,2.0,95,0.00,,,0.00,weatherlink.com 1.10,2013-03-30 11:17:00,
2013-03-30 04:32:00,43.2,42.0,30.24,WNW,288,0.0,2.0,95,0.00,,,0.00,weatherlink.com 1.10,2013-03-30 11:32:00,
2013-03-30 04:48:00,43.0,42.0,30.24,WNW,288,0.0,0.0,96,0.00,,,0.00,weatherlink.com 1.10,2013-03-30 11:48:00,
2013-03-30 05:02:00,42.7,42.0,30.24,WNW,288,0.0,0.0,96,0.00,,,0.00,weatherlink.com 1.10,2013-03-30 12:02:00,
2013-03-30 05:17:00,42.3,41.0,30.23,WNW,298,1.0,3.0,96,0.00,,,0.00,weatherlink.com 1.10,2013-03-30 12:17:00,
2013-03-30 05:47:00,42.0,41.0,30.23,NW,317,2.0,4.0,96,0.00,,,0.00,weatherlink.com 1.10,2013-03-30 12:47:00,
2013-03-30 06:02:00,42.0,41.0,30.23,NW,315,2.0,3.0,97,0.00,,,0.00,weatherlink.com 1.10,2013-03-30 13:02:00,
2013-03-30 06:17:00,42.2,41.0,30.24,NW,315,0.0,2.0,97,0.00,,,0.00,weatherlink.com 1.10,2013-03-30 13:17:00,
2013-03-30 06:32:00,42.0,41.0,30.24,NW,315,0.0,3.0,97,0.00,,,0.00,weatherlink.com 1.10,2013-03-30 13:32:00,
2013-03-30 06:47:00,41.8,41.0,30.24,NW,315,0.0,0.0,97,0.00,,,0.00,weatherlink.com 1.10,2013-03-30 13:47:00,
2013-03-30 07:02:00,41.7,41.0,30.24,NW,315,2.0,3.0,97,0.00,,,0.00,weatherlink.com 1.10,2013-03-30 14:02:00,
2013-03-30 07:17:00,41.7,41.0,30.24,NW,309,0.0,4.0,97,0.00,,,0.00,weatherlink.com 1.10,2013-03-30 14:17:00,
2013-03-30 07:32:00,41.7,41.0,30.24,NW,306,0.0,3.0,97,0.00,,,0.00,weatherlink.com 1.10,2013-03-30 14:32:00,
2013-03-30 07:47:00,41.8,41.0,30.24,NW,309,0.0,3.0,97,0.00,,,0.00,weatherlink.com 1.10,2013-03-30 14:47:00,
2013-03-30 08:02:00,42.3,42.0,30.24,NNE,22,2.0,5.0,97,0.00,,,0.00,weatherlink.com 1.10,2013-03-30 15:02:00,
2013-03-30 08:17:00,43.2,42.0,30.24,NNW,343,0.0,4.0,97,0.00,,,0.00,weatherlink.com 1.10,2013-03-30 15:17:00,
2013-03-30 08:32:00,43.8,43.0,30.24,NW,319,2.0,3.0,97,0.00,,,0.00,weatherlink.com 1.10,2013-03-30 15:32:00,
2013-03-30 08:47:00,44.7,43.0,30.24,NW,309,3.0,7.0,95,0.00,,,0.00,weatherlink.com 1.10,2013-03-30 15:47:00,
2013-03-30 09:02:00,46.3,44.0,30.23,NW,304,0.0,4.0,93,0.00,,,0.00,weatherlink.com 1.10,2013-03-30 16:02:00,
2013-03-30 09:17:00,47.3,45.0,30.23,West,277,2.0,5.0,91,0.00,,,0.00,weatherlink.com 1.10,2013-03-30 16:17:00,
2013-03-30 09:32:00,48.9,45.0,30.23,WNW,292,4.0,8.0,87,0.00,,,0.00,weatherlink.com 1.10,2013-03-30 16:32:00,
2013-03-30 09:47:00,51.5,45.0,30.23,NE,36,3.0,10.0,79,0.00,,,0.00,weatherlink.com 1.10,2013-03-30 16:47:00,
2013-03-30 10:02:00,52.1,45.0,30.23,NE,54,2.0,6.0,77,0.00,,,0.00,weatherlink.com 1.10,2013-03-30 17:02:00,
2013-03-30 10:17:00,52.7,46.0,30.22,NNW,334,4.0,7.0,77,0.00,,,0.00,weatherlink.com 1.10,2013-03-30 17:17:00,
2013-03-30 10:32:00,54.1,46.0,30.22,NNE,13,4.0,10.0,74,0.00,,,0.00,weatherlink.com 1.10,2013-03-30 17:32:00,
2013-03-30 10:48:00,55.8,46.0,30.22,NNE,17,7.0,15.0,70,0.00,,,0.00,weatherlink.com 1.10,2013-03-30 17:48:00,
2013-03-30 11:03:00,56.5,46.0,30.22,NNW,340,6.0,15.0,67,0.00,,,0.00,weatherlink.com 1.10,2013-03-30 18:03:00,
2013-03-30 11:18:00,56.6,46.0,30.22,NNE,13,12.0,15.0,67,0.00,,,0.00,weatherlink.com 1.10,2013-03-30 18:18:00,
2013-03-30 11:33:00,57.9,46.0,30.22,NNE,32,2.0,11.0,65,0.00,,,0.00,weatherlink.com 1.10,2013-03-30 18:33:00,
2013-03-30 11:48:00,59.0,46.0,30.21,NE,41,9.0,10.0,63,0.00,,,0.00,weatherlink.com 1.10,2013-03-30 18:48:00,
2013-03-30 12:03:00,59.4,46.0,30.21,NNW,336,5.0,12.0,62,0.00,,,0.00,weatherlink.com 1.10,2013-03-30 19:03:00,
2013-03-30 12:18:00,60.2,47.0,30.21,NNW,342,6.0,12.0,62,0.00,,,0.00,weatherlink.com 1.10,2013-03-30 19:18:00,
2013-03-30 12:33:00,60.5,47.0,30.20,NNE,17,8.0,11.0,61,0.00,,,0.00,weatherlink.com 1.10,2013-03-30 19:33:00,
2013-03-30 12:48:00,60.5,46.0,30.20,NNW,336,4.0,12.0,59,0.00,,,0.00,weatherlink.com 1.10,2013-03-30 19:48:00,
2013-03-30 13:03:00,60.8,48.0,30.19,NNW,331,5.0,10.0,64,0.00,,,0.00,weatherlink.com 1.10,2013-03-30 20:03:00,
2013-03-30 13:18:00,61.1,47.0,30.19,NNW,330,8.0,11.0,61,0.00,,,0.00,weatherlink.com 1.10,2013-03-30 20:18:00,
2013-03-30 13:33:00,60.6,47.0,30.18,NW,309,9.0,13.0,62,0.00,,,0.00,weatherlink.com 1.10,2013-03-30 20:33:00,
2013-03-30 13:48:00,60.5,47.0,30.18,NNE,33,6.0,11.0,62,0.00,,,0.00,weatherlink.com 1.10,2013-03-30 20:48:00,
2013-03-30 14:03:00,60.1,49.0,30.18,NNW,340,5.0,11.0,67,0.00,,,0.00,weatherlink.com 1.10,2013-03-30 21:03:00,
2013-03-30 14:18:00,59.7,49.0,30.17,North,360,6.0,9.0,67,0.00,,,0.00,weatherlink.com 1.10,2013-03-30 21:18:00,
2013-03-30 14:33:00,61.1,48.0,30.16,NW,313,9.0,12.0,62,0.00,,,0.00,weatherlink.com 1.10,2013-03-30 21:33:00,
2013-03-30 14:48:00,61.1,48.0,30.16,NW,304,8.0,10.0,62,0.00,,,0.00,weatherlink.com 1.10,2013-03-30 21:48:00,
2013-03-30 15:03:00,60.8,48.0,30.15,WNW,294,4.0,11.0,63,0.00,,,0.00,weatherlink.com 1.10,2013-03-30 22:03:00,
2013-03-30 15:18:00,60.5,49.0,30.15,NW,316,7.0,11.0,66,0.00,,,0.00,weatherlink.com 1.10,2013-03-30 22:18:00,
2013-03-30 15:33:00,61.6,50.0,30.14,WNW,290,7.0,11.0,65,0.00,,,0.00,weatherlink.com 1.10,2013-03-30 22:33:00,
2013-03-30 15:48:00,63.0,47.0,30.13,NNW,336,8.0,13.0,57,0.00,,,0.00,weatherlink.com 1.10,2013-03-30 22:48:00,
2013-03-30 16:03:00,63.5,48.0,30.13,NW,324,6.0,12.0,58,0.00,,,0.00,weatherlink.com 1.10,2013-03-30 23:03:00,
2013-03-30 16:18:00,63.8,47.0,30.12,NNW,340,8.0,12.0,55,0.00,,,0.00,weatherlink.com 1.10,2013-03-30 23:18:00,
2013-03-30 16:34:00,63.6,48.0,30.12,NW,323,7.0,9.0,57,0.00,,,0.00,weatherlink.com 1.10,2013-03-30 23:34:00,
2013-03-30 16:48:00,63.4,48.0,30.12,WNW,302,6.0,10.0,57,0.00,,,0.00,weatherlink.com 1.10,2013-03-30 23:48:00,
2013-03-30 17:03:00,62.7,48.0,30.11,NW,310,8.0,10.0,60,0.00,,,0.00,weatherlink.com 1.10,2013-03-31 00:03:00,
2013-03-30 17:18:00,62.2,48.0,30.11,WNW,288,8.0,9.0,60,0.00,,,0.00,weatherlink.com 1.10,2013-03-31 00:18:00,
2013-03-30 17:34:00,61.8,48.0,30.11,NW,310,5.0,10.0,62,0.00,,,0.00,weatherlink.com 1.10,2013-03-31 00:34:00,
2013-03-30 17:49:00,61.5,48.0,30.10,NW,321,8.0,12.0,62,0.00,,,0.00,weatherlink.com 1.10,2013-03-31 00:49:00,
2013-03-30 18:04:00,60.9,49.0,30.10,NNW,344,10.0,12.0,64,0.00,,,0.00,weatherlink.com 1.10,2013-03-31 01:04:00,
2013-03-30 18:19:00,59.8,48.0,30.09,NNW,334,7.0,11.0,65,0.00,,,0.00,weatherlink.com 1.10,2013-03-31 01:19:00,
2013-03-30 18:34:00,59.1,48.0,30.09,North,350,7.0,11.0,66,0.00,,,0.00,weatherlink.com 1.10,2013-03-31 01:34:00,
2013-03-30 18:51:00,58.4,48.0,30.09,NNW,342,9.0,10.0,68,0.00,,,0.00,weatherlink.com 1.10,2013-03-31 01:51:00,
2013-03-30 19:04:00,57.7,48.0,30.08,North,355,5.0,10.0,69,0.00,,,0.00,weatherlink.com 1.10,2013-03-31 02:04:00,
2013-03-30 19:19:00,57.1,48.0,30.08,North,355,6.0,6.0,71,0.00,,,0.00,weatherlink.com 1.10,2013-03-31 02:19:00,
2013-03-30 19:34:00,56.4,47.0,30.08,North,360,5.0,11.0,72,0.00,,,0.00,weatherlink.com 1.10,2013-03-31 02:34:00,
2013-03-30 19:49:00,55.7,48.0,30.08,NNW,331,3.0,5.0,74,0.00,,,0.00,weatherlink.com 1.10,2013-03-31 02:49:00,
2013-03-30 20:04:00,54.9,47.0,30.08,NW,317,4.0,6.0,75,0.00,,,0.00,weatherlink.com 1.10,2013-03-31 03:04:00,
2013-03-30 20:19:00,54.3,47.0,30.08,NW,306,5.0,6.0,76,0.00,,,0.00,weatherlink.com 1.10,2013-03-31 03:19:00,
2013-03-30 20:34:00,53.8,47.0,30.08,NW,324,1.0,5.0,77,0.00,,,0.00,weatherlink.com 1.10,2013-03-31 03:34:00,
2013-03-30 20:49:00,53.4,47.0,30.08,NW,317,3.0,6.0,78,0.00,,,0.00,weatherlink.com 1.10,2013-03-31 03:49:00,
2013-03-30 21:19:00,53.2,45.0,30.08,NNW,340,2.0,9.0,74,0.00,,,0.00,weatherlink.com 1.10,2013-03-31 04:19:00,
2013-03-30 21:34:00,53.3,44.0,30.08,North,355,1.0,8.0,72,0.00,,,0.00,weatherlink.com 1.10,2013-03-31 04:34:00,
2013-03-30 21:49:00,53.1,44.0,30.08,NNW,344,0.0,6.0,72,0.00,,,0.00,weatherlink.com 1.10,2013-03-31 04:49:00,
2013-03-30 22:04:00,53.0,44.0,30.08,NNW,334,2.0,6.0,72,0.00,,,0.00,weatherlink.com 1.10,2013-03-31 05:04:00,
2013-03-30 22:19:00,52.8,44.0,30.08,NNW,348,0.0,4.0,71,0.00,,,0.00,weatherlink.com 1.10,2013-03-31 05:19:00,
2013-03-30 22:34:00,52.4,44.0,30.08,NNW,348,0.0,3.0,73,0.00,,,0.00,weatherlink.com 1.10,2013-03-31 05:34:00,
2013-03-30 22:49:00,52.1,44.0,30.07,NW,325,2.0,5.0,73,0.00,,,0.00,weatherlink.com 1.10,2013-03-31 05:49:00,
2013-03-30 23:04:00,51.8,43.0,30.07,NNE,22,0.0,4.0,73,0.00,,,0.00,weatherlink.com 1.10,2013-03-31 06:04:00,
2013-03-30 23:19:00,51.5,43.0,30.07,NNE,16,4.0,6.0,73,0.00,,,0.00,weatherlink.com 1.10,2013-03-31 06:19:00,
2013-03-30 23:34:00,51.3,43.0,30.07,North,5,3.0,4.0,73,0.00,,,0.00,weatherlink.com 1.10,2013-03-31 06:34:00,
2013-03-30 23:49:00,51.1,43.0,30.07,North,355,0.0,5.0,73,0.00,,,0.00,weatherlink.com 1.10,2013-03-31 06:49:00,